Página principal
METAR-TAF:

METAR-TAF

Aeroportos :

Aeroporto Internacional de Xangai Pudong

Xangai-Pudong, China

latitude: 31-07N, longitude: 121-46E, altura: 4 m

Observação actual do tempo

O boletim foi feito há 33 minutos, às 18:00 UTC
Vento 8 kt de oes-noroeste
Temperatura 5°C
Humidade 87%
Pressão 1026 hPa
Visibilidade: 5000 m
Nuvens fragmentadasa uma altura de 2300 ft
neblina

METAR: ZSPD 221800Z 30004MPS 5000 BR BKN023 05/03 Q1026 NOSIG

Hora: 02:33 (18:33 UTC)

Previsão

O boletim foi feito há 3 horas e 22 minutos, às 15:11 UTC
Previsão válida de 22 às 18 UTC a 23 às 18 UTC
Vento 8 kt de nor-noroeste
Visibilidade: 5000 m
Nuvens fragmentadasa uma altura de 1300 ft
neblina

TAF: ZSPD 221511Z 2218/2318 34004MPS 5000 BR BKN013 TX10/2306Z TN03/2221Z

Observações e previsões do tempo de mais de 4000 aeroportos (mensagens METAR e TAF).

As estações disponíveis são os pontos amarelos e vermelhos sobre o mapa.

Mova o rato sobre o mapa para ver o nome da estação.

Depois clique no ponto para visualizar as observações e previsões meteorológicas.

Para alterar o mapa : clique nos botões verdes com uma cruz preta para aumentar o zoom; no botão verde com uma pitada de zoom; ou nas setas verdes para mapas adjacentes.


METAR-TAF: